createdAt,value
2019-03-04T00:00:50.953Z,55.48
2019-03-04T00:01:50.959Z,55.58
2019-03-04T00:02:50.930Z,56.02
2019-03-04T00:03:50.948Z,55.99
2019-03-04T00:04:50.911Z,56.63
2019-03-04T00:05:50.901Z,56.63
2019-03-04T00:06:50.890Z,56.30
2019-03-04T00:07:50.878Z,56.73
2019-03-04T00:08:51.765Z,56.63
2019-03-04T00:09:50.877Z,56.60
2019-03-04T00:10:50.845Z,56.84
2019-03-04T00:11:50.835Z,56.63
2019-03-04T00:13:49.849Z,56.73
2019-03-04T00:14:50.848Z,56.84
2019-03-04T00:15:50.791Z,56.84
2019-03-04T00:16:50.777Z,56.73
2019-03-04T00:17:50.775Z,56.84
2019-03-04T00:18:50.760Z,56.73
2019-03-04T00:19:50.775Z,56.73
2019-03-04T00:20:50.742Z,57.04
2019-03-04T00:21:50.730Z,56.73
2019-03-04T00:22:50.733Z,56.63
2019-03-04T00:23:50.731Z,56.63
2019-03-04T00:24:50.701Z,57.04
2019-03-04T00:25:51.834Z,56.63
2019-03-04T00:26:50.677Z,57.34
2019-03-04T00:27:50.665Z,56.43
2019-03-04T00:28:50.685Z,56.73
2019-03-04T00:29:50.641Z,56.73
2019-03-04T00:30:50.627Z,56.73
2019-03-04T00:31:50.625Z,57.04
2019-03-04T00:32:50.607Z,56.84
2019-03-04T00:33:50.595Z,57.04
2019-03-04T00:34:50.620Z,57.04
2019-03-04T00:35:50.579Z,57.37
2019-03-04T00:36:50.565Z,56.94
2019-03-04T00:37:50.548Z,56.94
2019-03-04T00:39:49.565Z,56.84
2019-03-04T00:40:50.524Z,56.73
2019-03-04T00:41:50.513Z,56.94
2019-03-04T00:42:50.499Z,56.84
2019-03-04T00:43:50.512Z,57.04
2019-03-04T00:44:50.479Z,56.96
2019-03-04T00:45:50.475Z,56.76
2019-03-04T00:46:50.453Z,56.84
2019-03-04T00:47:50.444Z,56.53
2019-03-04T00:48:50.434Z,57.57
2019-03-04T00:49:50.443Z,57.27
2019-03-04T00:50:50.421Z,57.48
2019-03-04T00:51:50.405Z,56.56
2019-03-04T00:52:50.390Z,57.78
2019-03-04T00:53:50.388Z,57.55
2019-03-04T00:54:50.372Z,57.68
2019-03-04T00:55:50.361Z,57.37
2019-03-04T00:56:50.379Z,57.27
2019-03-04T00:57:50.340Z,57.68
2019-03-04T00:58:50.327Z,57.37
2019-03-04T00:59:50.312Z,57.68
2019-03-04T01:00:50.304Z,57.78
2019-03-04T01:01:50.290Z,57.68
2019-03-04T01:02:50.312Z,57.78
2019-03-04T01:03:50.265Z,57.98
2019-03-04T01:04:50.259Z,57.98
2019-03-04T01:05:50.247Z,57.91
2019-03-04T01:06:50.240Z,57.68
2019-03-04T01:07:50.237Z,57.78
2019-03-04T01:08:50.241Z,57.88
2019-03-04T01:09:50.201Z,57.88
2019-03-04T01:10:50.195Z,57.57
2019-03-04T01:11:50.187Z,57.78
2019-03-04T01:12:50.746Z,57.57
2019-03-04T01:13:50.191Z,57.98
2019-03-04T01:14:50.148Z,57.78
2019-03-04T01:15:50.137Z,57.98
2019-03-04T01:16:50.134Z,58.29
2019-03-04T01:17:50.116Z,57.88
2019-03-04T01:18:50.106Z,57.48
2019-03-04T01:19:50.129Z,57.57
2019-03-04T01:20:50.083Z,57.98
2019-03-04T01:21:50.079Z,57.98
2019-03-04T01:22:50.069Z,57.98
2019-03-04T01:23:51.557Z,57.88
2019-03-04T01:24:50.041Z,58.19
2019-03-04T01:25:50.747Z,57.98
2019-03-04T01:26:50.017Z,58.39
2019-03-04T01:27:50.010Z,57.57
2019-03-04T01:28:50.003Z,57.78
2019-03-04T01:29:50.019Z,57.98
2019-03-04T01:30:49.990Z,57.78
2019-03-04T01:31:49.965Z,57.78
2019-03-04T01:32:49.957Z,57.68
2019-03-04T01:33:49.944Z,57.88
2019-03-04T01:34:49.940Z,58.29
2019-03-04T01:35:49.965Z,57.68
2019-03-04T01:36:49.910Z,57.78
2019-03-04T01:37:49.900Z,58.39
2019-03-04T01:38:49.890Z,58.29
2019-03-04T01:39:49.880Z,57.78
2019-03-04T01:40:49.869Z,57.78
2019-03-04T01:41:49.881Z,58.19
2019-03-04T01:42:49.853Z,58.09
2019-03-04T01:43:49.834Z,58.09
2019-03-04T01:44:49.851Z,57.78
2019-03-04T01:45:49.812Z,57.98
2019-03-04T01:46:49.802Z,58.19
2019-03-04T01:47:49.792Z,58.09
2019-03-04T01:48:49.778Z,58.91
2019-03-04T01:49:49.804Z,59.00
2019-03-04T01:50:49.758Z,58.93
2019-03-04T01:51:49.746Z,59.11
2019-03-04T01:52:49.736Z,58.39
2019-03-04T01:53:49.734Z,58.60
2019-03-04T01:54:49.716Z,58.39
2019-03-04T01:55:49.734Z,58.60
2019-03-04T01:56:49.688Z,58.70
2019-03-04T01:57:49.685Z,58.70
2019-03-04T01:58:49.668Z,58.52
2019-03-04T01:59:49.661Z,58.60
2019-03-04T02:00:49.654Z,58.80
2019-03-04T02:01:49.677Z,58.60
2019-03-04T02:02:49.631Z,58.50
2019-03-04T02:03:49.620Z,58.70
2019-03-04T02:04:49.612Z,58.39
2019-03-04T02:05:49.596Z,58.29
2019-03-04T02:06:49.582Z,58.42
2019-03-04T02:07:49.600Z,58.60
2019-03-04T02:08:52.235Z,58.39
2019-03-04T02:09:49.562Z,58.70
2019-03-04T02:10:52.232Z,58.60
2019-03-04T02:11:49.562Z,59.00
2019-03-04T02:12:49.524Z,58.60
2019-03-04T02:13:51.380Z,58.73
2019-03-04T02:14:49.502Z,58.60
2019-03-04T02:15:49.494Z,58.60
2019-03-04T02:16:50.236Z,58.73
2019-03-04T02:17:49.474Z,58.62
2019-03-04T02:18:49.476Z,58.62
2019-03-04T02:19:49.450Z,58.52
2019-03-04T02:20:49.439Z,59.14
2019-03-04T02:21:49.423Z,58.73
2019-03-04T02:22:49.441Z,58.60
2019-03-04T02:23:49.403Z,59.03
2019-03-04T02:24:49.393Z,58.73
2019-03-04T02:25:49.378Z,58.73
2019-03-04T02:26:49.406Z,59.03
2019-03-04T02:27:49.367Z,58.52
2019-03-04T02:28:49.379Z,59.11
2019-03-04T02:29:49.343Z,58.83
2019-03-04T02:30:49.332Z,58.83
2019-03-04T02:31:49.315Z,58.29
2019-03-04T02:32:49.304Z,58.09
2019-03-04T02:33:49.298Z,58.29
2019-03-04T02:34:49.311Z,57.78
2019-03-04T02:35:49.281Z,57.78
2019-03-04T02:36:49.268Z,57.68
2019-03-04T02:37:49.276Z,58.29
2019-03-04T02:38:49.246Z,57.48
2019-03-04T02:39:49.237Z,58.19
2019-03-04T02:40:49.241Z,58.19
2019-03-04T02:41:49.205Z,57.98
2019-03-04T02:42:49.729Z,57.68
2019-03-04T02:43:49.189Z,58.29
2019-03-04T02:44:49.181Z,57.78
2019-03-04T02:45:49.175Z,58.19
2019-03-04T02:46:49.167Z,58.19
2019-03-04T02:47:49.153Z,57.88
2019-03-04T02:48:49.167Z,58.11
2019-03-04T02:49:49.133Z,58.22
2019-03-04T02:50:49.110Z,58.29
2019-03-04T02:51:49.101Z,58.19
2019-03-04T02:52:49.095Z,58.09
2019-03-04T02:53:49.083Z,58.19
2019-03-04T02:54:51.724Z,58.93
2019-03-04T02:55:49.086Z,58.09
2019-03-04T02:56:49.054Z,59.14
2019-03-04T02:57:49.033Z,58.60
2019-03-04T02:58:49.031Z,59.00
2019-03-04T02:59:49.058Z,58.42
2019-03-04T03:00:49.004Z,58.19
2019-03-04T03:01:48.995Z,58.01
2019-03-04T03:02:48.985Z,58.93
2019-03-04T03:03:48.978Z,59.03
2019-03-04T03:04:48.965Z,59.14
2019-03-04T03:05:48.975Z,58.52
2019-03-04T03:06:48.941Z,58.62
2019-03-04T03:07:48.927Z,58.80
2019-03-04T03:08:48.917Z,59.23
2019-03-04T03:09:48.906Z,58.73
2019-03-04T03:10:48.893Z,58.93
2019-03-04T03:11:48.923Z,59.23
2019-03-04T03:12:48.878Z,59.34
2019-03-04T03:13:48.874Z,59.34
2019-03-04T03:14:48.857Z,59.44
2019-03-04T03:15:48.846Z,58.83
2019-03-04T03:16:48.834Z,59.37
2019-03-04T03:17:48.860Z,59.78
2019-03-04T03:18:48.814Z,59.37
2019-03-04T03:19:48.803Z,59.37
2019-03-04T03:20:48.787Z,58.96
2019-03-04T03:21:48.785Z,59.06
2019-03-04T03:22:48.798Z,59.37
2019-03-04T03:23:48.781Z,58.86
2019-03-04T03:24:48.749Z,59.57
2019-03-04T03:25:49.217Z,59.27
2019-03-04T03:26:48.727Z,59.47
2019-03-04T03:27:48.723Z,59.37
2019-03-04T03:28:51.225Z,59.27
2019-03-04T03:29:48.693Z,59.27
2019-03-04T03:31:47.687Z,58.86
2019-03-04T03:32:48.681Z,59.06
2019-03-04T03:33:48.661Z,59.16
2019-03-04T03:34:48.652Z,59.16
2019-03-04T03:35:48.661Z,58.86
2019-03-04T03:36:48.621Z,58.86
2019-03-04T03:37:48.762Z,58.75
2019-03-04T03:38:48.600Z,59.27
2019-03-04T03:39:48.588Z,59.16
2019-03-04T03:40:48.604Z,58.86
2019-03-04T03:41:48.561Z,58.65
2019-03-04T03:42:48.563Z,58.75
2019-03-04T03:43:48.542Z,58.75
2019-03-04T03:44:48.534Z,58.75
2019-03-04T03:45:48.519Z,59.06
2019-03-04T03:46:48.541Z,59.16
2019-03-04T03:47:48.502Z,58.65
2019-03-04T03:48:48.500Z,59.06
2019-03-04T03:49:48.477Z,59.16
2019-03-04T03:50:48.465Z,58.86
2019-03-04T03:51:49.220Z,58.04
2019-03-04T03:52:48.484Z,58.25
2019-03-04T03:53:48.434Z,58.96
2019-03-04T03:54:48.448Z,58.75
2019-03-04T03:55:48.413Z,58.14
2019-03-04T03:56:48.403Z,58.96
2019-03-04T03:57:48.429Z,58.34
2019-03-04T03:58:48.380Z,58.14
2019-03-04T03:59:48.366Z,58.96
2019-03-04T04:00:48.358Z,59.06
2019-03-04T04:01:51.218Z,59.37
2019-03-04T04:02:51.757Z,59.37
2019-03-04T04:03:48.331Z,59.16
2019-03-04T04:04:48.325Z,59.27
2019-03-04T04:05:48.302Z,59.16
2019-03-04T04:06:48.299Z,59.27
2019-03-04T04:07:48.283Z,58.86
2019-03-04T04:08:48.295Z,58.04
2019-03-04T04:09:48.275Z,58.96
2019-03-04T04:10:48.252Z,58.75
2019-03-04T04:11:48.242Z,58.04
2019-03-04T04:12:49.124Z,57.73
2019-03-04T04:13:48.220Z,57.84
2019-03-04T04:14:48.229Z,58.86
2019-03-04T04:15:48.202Z,58.65
2019-03-04T04:16:48.185Z,58.34
2019-03-04T04:17:48.206Z,58.86
2019-03-04T04:18:48.167Z,57.93
2019-03-04T04:19:48.158Z,57.73
2019-03-04T04:20:48.138Z,58.34
2019-03-04T04:21:48.134Z,58.34
2019-03-04T04:22:48.124Z,58.04
2019-03-04T04:23:48.131Z,58.04
2019-03-04T04:24:48.101Z,58.25
2019-03-04T04:25:48.096Z,59.16
2019-03-04T04:26:48.080Z,58.34
2019-03-04T04:27:48.248Z,58.96
2019-03-04T04:28:48.703Z,57.84
2019-03-04T04:29:48.040Z,58.45
2019-03-04T04:30:48.030Z,57.93
2019-03-04T04:31:48.031Z,57.93
2019-03-04T04:32:48.017Z,58.34
2019-03-04T04:33:48.036Z,57.84
2019-03-04T04:34:47.992Z,57.84
2019-03-04T04:35:47.977Z,58.34
2019-03-04T04:36:47.964Z,58.04
2019-03-04T04:37:47.960Z,57.60
2019-03-04T04:38:47.954Z,58.01
2019-03-04T04:39:47.964Z,57.60
2019-03-04T04:40:47.930Z,57.81
2019-03-04T04:41:47.912Z,57.50
2019-03-04T04:42:47.936Z,58.32
2019-03-04T04:43:47.894Z,57.81
2019-03-04T04:44:47.884Z,58.04
2019-03-04T04:45:47.868Z,57.84
2019-03-04T04:46:48.696Z,57.43
2019-03-04T04:47:47.853Z,57.63
2019-03-04T04:48:51.238Z,57.81
2019-03-04T04:49:47.864Z,57.84
2019-03-04T04:50:47.823Z,57.91
2019-03-04T04:51:47.809Z,58.22
2019-03-04T04:52:47.802Z,57.60
2019-03-04T04:53:47.786Z,57.50
2019-03-04T04:54:47.776Z,57.91
2019-03-04T04:56:46.749Z,57.17
2019-03-04T04:57:47.771Z,57.60
2019-03-04T04:58:47.735Z,56.89
2019-03-04T04:59:47.729Z,56.68
2019-03-04T05:00:47.716Z,56.76
2019-03-04T05:01:47.696Z,56.99
2019-03-04T05:02:47.798Z,57.37
2019-03-04T05:03:47.678Z,56.79
2019-03-04T05:04:47.669Z,56.45
2019-03-04T05:05:47.656Z,56.56
2019-03-04T05:06:47.653Z,57.07
2019-03-04T05:07:47.660Z,56.86
2019-03-04T05:08:47.625Z,56.45
2019-03-04T05:09:47.610Z,55.74
2019-03-04T05:10:47.607Z,55.84
2019-03-04T05:11:47.592Z,55.94
2019-03-04T05:12:47.573Z,55.82
2019-03-04T05:13:47.596Z,55.82
2019-03-04T05:14:47.560Z,55.10
2019-03-04T05:15:47.549Z,54.49
2019-03-04T05:16:47.535Z,55.30
2019-03-04T05:17:47.525Z,55.20
2019-03-04T05:18:47.511Z,55.20
2019-03-04T05:19:47.538Z,55.10
2019-03-04T05:20:47.522Z,54.18
2019-03-04T05:21:47.484Z,54.46
2019-03-04T05:22:47.475Z,55.38
2019-03-04T05:23:47.456Z,55.41
2019-03-04T05:24:47.444Z,54.97
2019-03-04T05:25:47.464Z,55.28
2019-03-04T05:26:47.427Z,55.28
2019-03-04T05:27:47.413Z,53.96
2019-03-04T05:28:47.409Z,54.16
2019-03-04T05:29:47.396Z,54.57
2019-03-04T05:30:47.382Z,53.85
2019-03-04T05:31:47.398Z,53.64
2019-03-04T05:32:47.358Z,53.44
2019-03-04T05:33:47.354Z,53.34
2019-03-04T05:34:47.349Z,53.62
2019-03-04T05:35:50.181Z,54.03
2019-03-04T05:36:47.315Z,53.11
2019-03-04T05:37:47.306Z,52.70
2019-03-04T05:38:47.295Z,53.03
2019-03-04T05:39:47.306Z,52.09
2019-03-04T05:40:47.298Z,52.29
2019-03-04T05:41:47.261Z,52.50
2019-03-04T05:42:47.251Z,52.29
2019-03-04T05:43:47.233Z,52.09
2019-03-04T05:44:47.233Z,51.58
2019-03-04T05:45:50.185Z,52.20
2019-03-04T05:46:49.681Z,51.89
2019-03-04T05:47:47.195Z,51.89
2019-03-04T05:48:47.183Z,52.20
2019-03-04T05:49:47.172Z,51.56
2019-03-04T05:50:47.191Z,52.20
2019-03-04T05:51:47.155Z,51.17
2019-03-04T05:52:47.139Z,51.97
2019-03-04T05:53:47.129Z,51.35
2019-03-04T05:54:47.113Z,51.25
2019-03-04T05:55:47.109Z,51.25
2019-03-04T05:56:47.676Z,51.35
2019-03-04T05:57:47.088Z,51.86
2019-03-04T05:58:47.067Z,51.66
2019-03-04T05:59:47.067Z,51.15
2019-03-04T06:00:47.060Z,51.15
2019-03-04T06:01:47.039Z,50.95
2019-03-04T06:02:47.051Z,51.05
2019-03-04T06:03:47.018Z,51.05
2019-03-04T06:04:49.675Z,51.05
2019-03-04T06:05:46.993Z,50.64
2019-03-04T06:06:46.991Z,51.05
2019-03-04T06:07:46.973Z,51.05
2019-03-04T06:08:46.989Z,51.05
2019-03-04T06:09:46.945Z,51.15
2019-03-04T06:10:46.937Z,51.05
2019-03-04T06:11:46.926Z,51.05
2019-03-04T06:12:46.911Z,51.05
2019-03-04T06:13:46.899Z,51.35
2019-03-04T06:14:46.927Z,50.95
2019-03-04T06:15:47.731Z,51.76
2019-03-04T06:16:47.637Z,51.23
2019-03-04T06:17:46.853Z,50.54
2019-03-04T06:18:46.847Z,51.33
2019-03-04T06:19:46.831Z,51.15
2019-03-04T06:20:46.839Z,50.64
2019-03-04T06:21:46.841Z,51.05
2019-03-04T06:22:46.806Z,50.64
2019-03-04T06:23:46.797Z,51.05
2019-03-04T06:24:46.787Z,51.46
2019-03-04T06:25:46.778Z,50.03
2019-03-04T06:26:46.757Z,50.01
2019-03-04T06:27:46.775Z,50.01
2019-03-04T06:28:46.733Z,50.11
2019-03-04T06:29:46.732Z,49.80
2019-03-04T06:30:46.711Z,49.60
2019-03-04T06:31:46.741Z,50.01
2019-03-04T06:32:46.689Z,50.21
2019-03-04T06:33:46.681Z,49.70
2019-03-04T06:34:46.755Z,50.11
2019-03-04T06:35:46.647Z,49.60
2019-03-04T06:36:46.681Z,49.90
2019-03-04T06:37:46.633Z,49.29
2019-03-04T06:38:46.638Z,49.50
2019-03-04T06:39:46.640Z,49.29
2019-03-04T06:40:46.600Z,49.27
2019-03-04T06:41:46.584Z,49.60
2019-03-04T06:42:46.581Z,49.27
2019-03-04T06:43:46.596Z,49.58
2019-03-04T06:44:46.559Z,49.70
2019-03-04T06:45:46.568Z,49.78
2019-03-04T06:46:46.531Z,49.58
2019-03-04T06:47:46.538Z,49.27
2019-03-04T06:48:46.541Z,49.80
2019-03-04T06:49:46.502Z,49.78
2019-03-04T06:50:46.487Z,49.78
2019-03-04T06:51:46.507Z,49.68
2019-03-04T06:52:46.466Z,49.78
2019-03-04T06:53:46.456Z,49.58
2019-03-04T06:54:46.443Z,49.68
2019-03-04T06:55:46.431Z,49.58
2019-03-04T06:56:46.452Z,49.98
2019-03-04T06:57:46.449Z,49.68
2019-03-04T06:58:46.397Z,49.78
2019-03-04T06:59:46.383Z,49.98
2019-03-04T07:00:47.165Z,49.27
2019-03-04T07:01:46.366Z,49.27
2019-03-04T07:02:46.386Z,48.96
2019-03-04T07:03:46.363Z,49.78
2019-03-04T07:04:46.336Z,48.86
2019-03-04T07:05:46.317Z,48.96
2019-03-04T07:06:46.325Z,49.68
2019-03-04T07:07:46.337Z,49.27
2019-03-04T07:08:46.285Z,49.07
2019-03-04T07:09:46.272Z,49.07
2019-03-04T07:10:46.269Z,49.88
2019-03-04T07:11:46.257Z,49.07
2019-03-04T07:12:46.267Z,48.94
2019-03-04T07:13:46.231Z,48.43
2019-03-04T07:14:46.217Z,49.04
2019-03-04T07:15:46.212Z,48.03
2019-03-04T07:16:46.233Z,48.33
2019-03-04T07:17:46.192Z,48.13
2019-03-04T07:18:46.205Z,48.23
2019-03-04T07:19:46.176Z,48.33
2019-03-04T07:20:46.659Z,47.90
2019-03-04T07:21:46.137Z,47.39
2019-03-04T07:22:48.392Z,46.98
2019-03-04T07:23:46.127Z,47.29
2019-03-04T07:24:46.115Z,47.21
2019-03-04T07:25:46.103Z,47.19
2019-03-04T07:26:46.095Z,47.09
2019-03-04T07:27:46.113Z,46.98
2019-03-04T07:28:46.662Z,47.39
2019-03-04T07:29:46.055Z,47.19
2019-03-04T07:30:46.080Z,47.06
2019-03-04T07:31:46.046Z,46.86
2019-03-04T07:32:46.019Z,46.48
2019-03-04T07:33:46.018Z,46.66
2019-03-04T07:34:46.030Z,46.86
2019-03-04T07:35:45.996Z,46.45
2019-03-04T07:36:45.981Z,46.97
2019-03-04T07:37:45.964Z,46.25
2019-03-04T07:38:45.951Z,45.84
2019-03-04T07:39:45.942Z,46.33
2019-03-04T07:40:45.955Z,45.42
2019-03-04T07:41:45.930Z,45.21
2019-03-04T07:42:45.912Z,44.30
2019-03-04T07:43:45.903Z,44.30
2019-03-04T07:44:45.894Z,45.11
2019-03-04T07:45:45.903Z,45.09
2019-03-04T07:46:45.879Z,44.99
2019-03-04T07:47:45.864Z,44.38
2019-03-04T07:48:45.859Z,44.59
2019-03-04T07:49:45.849Z,44.68
2019-03-04T07:50:45.827Z,44.48
2019-03-04T07:51:45.842Z,44.48
2019-03-04T07:52:45.811Z,44.48
2019-03-04T07:53:46.752Z,44.48
2019-03-04T07:54:45.791Z,44.59
2019-03-04T07:55:45.774Z,44.18
2019-03-04T07:56:45.791Z,44.36
2019-03-04T07:57:45.757Z,43.96
2019-03-04T07:58:45.741Z,44.06
2019-03-04T07:59:45.776Z,44.26
2019-03-04T08:00:45.716Z,43.75
2019-03-04T08:01:45.708Z,44.87
2019-03-04T08:02:45.699Z,43.75
2019-03-04T08:03:45.709Z,43.43
2019-03-04T08:04:46.187Z,43.53
2019-03-04T08:05:45.668Z,43.73
2019-03-04T08:06:45.650Z,44.34
2019-03-04T08:07:45.647Z,44.13
2019-03-04T08:08:46.141Z,43.93
2019-03-04T08:09:45.658Z,43.73
2019-03-04T08:10:45.625Z,44.24
2019-03-04T08:11:45.607Z,43.02
2019-03-04T08:12:48.148Z,43.63
2019-03-04T08:13:47.199Z,43.84
2019-03-04T08:14:45.565Z,43.53
2019-03-04T08:15:45.547Z,43.84
2019-03-04T08:16:45.539Z,43.12
2019-03-04T08:17:45.534Z,43.02
2019-03-04T08:18:47.199Z,43.20
2019-03-04T08:19:45.505Z,42.31
2019-03-04T08:20:45.527Z,42.69
2019-03-04T08:21:45.483Z,43.30
2019-03-04T08:22:48.149Z,42.90
2019-03-04T08:23:45.468Z,42.69
2019-03-04T08:24:45.458Z,43.51
2019-03-04T08:25:45.471Z,43.20
2019-03-04T08:26:45.448Z,41.99
2019-03-04T08:27:48.153Z,42.19
2019-03-04T08:28:45.401Z,42.09
2019-03-04T08:29:45.393Z,41.99
2019-03-04T08:30:45.387Z,42.29
2019-03-04T08:31:48.142Z,41.99
2019-03-04T08:32:45.367Z,41.99
2019-03-04T08:33:45.358Z,43.20
2019-03-04T08:34:45.342Z,43.10
2019-03-04T08:35:45.332Z,42.69
2019-03-04T08:36:45.345Z,42.90
2019-03-04T08:37:45.309Z,42.19
2019-03-04T08:38:45.323Z,41.99
2019-03-04T08:40:44.318Z,41.99
2019-03-04T08:41:45.263Z,42.29
2019-03-04T08:42:45.262Z,43.81
2019-03-04T08:43:45.271Z,43.61
2019-03-04T08:44:45.225Z,42.09
2019-03-04T08:45:45.217Z,42.29
2019-03-04T08:46:45.207Z,42.88
2019-03-04T08:47:45.206Z,42.80
2019-03-04T08:48:45.211Z,42.27
2019-03-04T08:49:45.175Z,43.18
2019-03-04T08:50:45.213Z,43.08
2019-03-04T08:51:45.153Z,42.27
2019-03-04T08:52:45.150Z,42.27
2019-03-04T08:53:45.157Z,41.74
2019-03-04T08:54:47.659Z,41.66
2019-03-04T08:55:45.485Z,42.27
2019-03-04T08:56:45.105Z,41.74
2019-03-04T08:57:45.093Z,42.15
2019-03-04T08:58:45.113Z,41.97
2019-03-04T08:59:45.092Z,42.25
2019-03-04T09:00:45.059Z,42.86
2019-03-04T09:01:45.052Z,42.35
2019-03-04T09:02:45.035Z,42.27
2019-03-04T09:03:45.025Z,42.25
2019-03-04T09:04:45.078Z,42.78
2019-03-04T09:05:45.023Z,44.10
2019-03-04T09:06:45.002Z,42.86
2019-03-04T09:07:44.980Z,43.06
2019-03-04T09:08:45.020Z,44.60
2019-03-04T09:09:44.955Z,44.20
2019-03-04T09:10:44.939Z,44.70
2019-03-04T09:11:44.935Z,45.31
2019-03-04T09:12:44.926Z,45.11
2019-03-04T09:13:44.977Z,44.10
2019-03-04T09:14:44.905Z,45.62
2019-03-04T09:15:44.896Z,44.90
2019-03-04T09:16:44.881Z,45.51
2019-03-04T09:17:44.865Z,44.81
2019-03-04T09:18:44.855Z,44.81
2019-03-04T09:19:44.887Z,45.54
2019-03-04T09:20:44.830Z,46.25
2019-03-04T09:21:44.854Z,45.74
2019-03-04T09:22:44.814Z,45.74
2019-03-04T09:23:44.835Z,46.04
2019-03-04T09:24:44.794Z,46.14
2019-03-04T09:25:44.808Z,46.14
2019-03-04T09:26:44.777Z,46.25
2019-03-04T09:27:44.766Z,46.25
2019-03-04T09:28:45.692Z,46.04
2019-03-04T09:29:46.728Z,46.25
2019-03-04T09:30:44.731Z,46.14
2019-03-04T09:31:44.715Z,46.14
2019-03-04T09:32:44.704Z,46.75
2019-03-04T09:33:44.718Z,46.57
2019-03-04T09:35:46.633Z,46.95
2019-03-04T09:36:44.667Z,46.45
2019-03-04T09:37:44.652Z,46.14
2019-03-04T09:38:44.636Z,45.94
2019-03-04T09:39:44.630Z,45.64
2019-03-04T09:40:44.652Z,46.04
2019-03-04T09:41:44.621Z,45.54
2019-03-04T09:42:44.611Z,46.04
2019-03-04T09:43:44.603Z,45.23
2019-03-04T09:44:44.603Z,46.14
2019-03-04T09:45:44.561Z,45.92
2019-03-04T09:46:44.576Z,45.94
2019-03-04T09:47:44.587Z,45.43
2019-03-04T09:48:44.529Z,46.25
2019-03-04T09:49:44.517Z,45.74
2019-03-04T09:50:44.512Z,46.04
2019-03-04T09:51:44.499Z,45.94
2019-03-04T09:52:44.489Z,45.94
2019-03-04T09:53:44.507Z,46.75
2019-03-04T09:54:44.467Z,45.94
2019-03-04T09:55:47.123Z,45.74
2019-03-04T09:56:44.470Z,45.33
2019-03-04T09:57:44.449Z,44.62
2019-03-04T09:58:44.413Z,44.01
2019-03-04T09:59:44.420Z,43.71
2019-03-04T10:00:44.442Z,43.41
2019-03-04T10:01:44.459Z,42.47
2019-03-04T10:02:44.371Z,42.37
2019-03-04T10:03:44.375Z,41.64
2019-03-04T10:04:44.346Z,41.56
2019-03-04T10:05:44.346Z,40.63
2019-03-04T10:06:44.376Z,40.43
2019-03-04T10:07:44.318Z,40.02
2019-03-04T10:08:44.308Z,39.80
2019-03-04T10:09:44.303Z,39.90
2019-03-04T10:10:44.285Z,40.00
2019-03-04T10:11:44.275Z,39.50
2019-03-04T10:12:44.404Z,40.29
2019-03-04T10:13:44.253Z,38.87
2019-03-04T10:14:44.235Z,39.06
2019-03-04T10:15:44.227Z,39.36
2019-03-04T10:16:44.219Z,38.85
2019-03-04T10:17:44.208Z,38.53
2019-03-04T10:18:44.574Z,38.53
2019-03-04T10:19:44.189Z,38.23
2019-03-04T10:20:44.194Z,37.52
2019-03-04T10:21:44.162Z,37.32
2019-03-04T10:22:44.156Z,37.62
2019-03-04T10:23:44.145Z,37.40
2019-03-04T10:24:44.185Z,37.10
2019-03-04T10:25:46.622Z,35.88
2019-03-04T10:26:44.108Z,36.19
2019-03-04T10:27:44.106Z,36.08
2019-03-04T10:28:44.101Z,36.08
2019-03-04T10:29:44.087Z,35.68
2019-03-04T10:30:44.093Z,35.48
2019-03-04T10:31:44.092Z,34.88
2019-03-04T10:32:44.051Z,35.77
2019-03-04T10:33:44.038Z,35.16
2019-03-04T10:34:44.621Z,35.16
2019-03-04T10:35:44.014Z,34.66
2019-03-04T10:36:44.010Z,35.48
2019-03-04T10:37:44.021Z,35.48
2019-03-04T10:38:43.981Z,35.88
2019-03-04T10:39:44.619Z,35.68
2019-03-04T10:40:43.962Z,36.29
2019-03-04T10:41:43.978Z,36.29
2019-03-04T10:42:43.932Z,35.48
2019-03-04T10:43:43.959Z,35.68
2019-03-04T10:44:43.924Z,35.08
2019-03-04T10:45:43.980Z,35.08
2019-03-04T10:46:43.915Z,35.90
2019-03-04T10:47:46.614Z,36.49
2019-03-04T10:48:43.877Z,36.00
2019-03-04T10:49:43.915Z,36.30
2019-03-04T10:50:43.857Z,36.00
2019-03-04T10:51:43.834Z,36.10
2019-03-04T10:52:43.829Z,35.99
2019-03-04T10:53:43.851Z,36.41
2019-03-04T10:54:43.866Z,36.61
2019-03-04T10:55:43.791Z,36.41
2019-03-04T10:56:43.776Z,36.30
2019-03-04T10:57:43.833Z,37.12
2019-03-04T10:58:43.754Z,36.51
2019-03-04T10:59:43.773Z,35.70
2019-03-04T11:00:43.764Z,36.00
2019-03-04T11:01:43.729Z,35.70
2019-03-04T11:02:46.615Z,36.19
2019-03-04T11:03:44.644Z,36.08
2019-03-04T11:04:43.692Z,36.08
2019-03-04T11:05:43.688Z,34.88
2019-03-04T11:06:43.704Z,33.97
2019-03-04T11:07:43.655Z,34.17
2019-03-04T11:08:43.664Z,34.17
2019-03-04T11:09:43.661Z,34.47
2019-03-04T11:10:43.630Z,34.88
2019-03-04T11:11:43.632Z,35.16
2019-03-04T11:12:43.610Z,35.26
2019-03-04T11:13:43.596Z,35.97
2019-03-04T11:14:43.632Z,36.17
2019-03-04T11:15:43.572Z,34.95
2019-03-04T11:16:43.560Z,34.25
2019-03-04T11:17:43.550Z,34.35
2019-03-04T11:18:43.538Z,34.15
2019-03-04T11:19:43.530Z,33.84
2019-03-04T11:20:43.560Z,33.64
2019-03-04T11:21:44.111Z,33.86
2019-03-04T11:22:43.490Z,34.15
2019-03-04T11:23:43.495Z,33.56
2019-03-04T11:24:48.665Z,33.34
2019-03-04T11:25:43.463Z,33.36
2019-03-04T11:26:43.447Z,33.46
2019-03-04T11:27:43.464Z,33.66
2019-03-04T11:28:43.425Z,33.66
2019-03-04T11:29:43.421Z,33.56
2019-03-04T11:30:43.444Z,33.36
2019-03-04T11:31:43.390Z,33.56
2019-03-04T11:32:46.111Z,33.56
2019-03-04T11:33:46.134Z,33.66
2019-03-04T11:35:43.110Z,33.24
2019-03-04T11:36:43.364Z,33.54
2019-03-04T11:37:43.364Z,33.24
2019-03-04T11:38:46.103Z,33.44
2019-03-04T11:39:43.305Z,33.75
2019-03-04T11:40:43.298Z,33.34
2019-03-04T11:41:43.287Z,33.44
2019-03-04T11:42:43.279Z,33.24
2019-03-04T11:43:43.292Z,33.24
2019-03-04T11:44:43.248Z,34.03
2019-03-04T11:45:43.271Z,33.43
2019-03-04T11:46:43.233Z,33.43
2019-03-04T11:47:46.112Z,33.83
2019-03-04T11:48:43.209Z,33.22
2019-03-04T11:49:43.224Z,32.82
2019-03-04T11:50:43.184Z,33.12
2019-03-04T11:51:43.180Z,33.02
2019-03-04T11:52:43.159Z,33.33
2019-03-04T11:53:43.184Z,33.33
2019-03-04T11:54:43.179Z,33.01
2019-03-04T11:55:43.130Z,32.90
2019-03-04T11:56:43.132Z,33.11
2019-03-04T11:57:43.112Z,32.70
2019-03-04T11:58:43.096Z,32.40
2019-03-04T11:59:43.177Z,32.90
2019-03-04T12:00:43.078Z,32.40
2019-03-04T12:01:43.059Z,32.60
2019-03-04T12:02:43.050Z,32.50
2019-03-04T12:03:43.031Z,32.90
2019-03-04T12:04:43.033Z,31.90
2019-03-04T12:05:43.049Z,31.70
2019-03-04T12:06:43.268Z,32.89
2019-03-04T12:07:42.993Z,32.79
2019-03-04T12:08:43.016Z,30.47
2019-03-04T12:09:42.981Z,30.58
2019-03-04T12:10:42.966Z,30.77
2019-03-04T12:11:42.955Z,30.27
2019-03-04T12:12:42.940Z,29.57
2019-03-04T12:13:42.974Z,30.48
2019-03-04T12:14:42.917Z,30.08
2019-03-04T12:15:42.921Z,29.59
2019-03-04T12:16:42.902Z,30.30
2019-03-04T12:17:42.891Z,29.39
2019-03-04T12:18:42.881Z,30.19
2019-03-04T12:19:42.898Z,29.99
2019-03-04T12:20:42.858Z,30.41
2019-03-04T12:21:42.847Z,29.71
2019-03-04T12:22:42.832Z,30.62
2019-03-04T12:23:42.853Z,29.80
2019-03-04T12:24:42.811Z,29.61
2019-03-04T12:25:42.840Z,30.62
2019-03-04T12:26:42.804Z,29.80
2019-03-04T12:27:42.778Z,30.31
2019-03-04T12:28:42.803Z,30.51
2019-03-04T12:29:42.759Z,30.51
2019-03-04T12:30:42.755Z,30.31
2019-03-04T12:31:42.736Z,29.52
2019-03-04T12:32:42.726Z,29.82
2019-03-04T12:33:42.736Z,30.00
2019-03-04T12:34:43.596Z,30.11
2019-03-04T12:35:43.598Z,30.02
2019-03-04T12:36:42.680Z,30.32
2019-03-04T12:37:42.668Z,30.84
2019-03-04T12:38:42.692Z,30.83
2019-03-04T12:39:42.643Z,31.05
2019-03-04T12:40:42.634Z,31.55
2019-03-04T12:41:42.629Z,31.67
2019-03-04T12:42:42.695Z,32.28
2019-03-04T12:43:45.093Z,31.97
2019-03-04T12:44:42.617Z,32.07
2019-03-04T12:45:42.579Z,31.77
2019-03-04T12:46:42.565Z,32.07
2019-03-04T12:47:42.560Z,31.87
2019-03-04T12:48:42.554Z,32.48
2019-03-04T12:49:42.534Z,32.07
2019-03-04T12:50:42.574Z,33.49
2019-03-04T12:51:42.518Z,33.09
2019-03-04T12:52:42.516Z,32.98
2019-03-04T12:53:42.521Z,33.09
2019-03-04T12:54:42.477Z,33.09
2019-03-04T12:55:42.469Z,34.00
2019-03-04T12:56:42.614Z,33.39
2019-03-04T12:57:42.445Z,33.18
2019-03-04T12:58:42.431Z,33.81
2019-03-04T12:59:42.437Z,33.91